createdAt,value
2022-09-15T00:00:53.333Z,1.10
2022-09-15T00:01:56.424Z,1.30
2022-09-15T00:02:58.928Z,1.13
2022-09-15T00:04:02.467Z,1.20
2022-09-15T00:05:05.254Z,1.40
2022-09-15T00:06:08.967Z,1.25
2022-09-15T00:07:11.136Z,1.48
2022-09-15T00:08:14.930Z,1.48
2022-09-15T00:09:18.041Z,1.60
2022-09-15T00:10:20.183Z,1.55
2022-09-15T00:11:25.350Z,1.40
2022-09-15T00:12:28.093Z,1.50
2022-09-15T00:13:31.273Z,1.33
2022-09-15T00:14:34.714Z,1.55
2022-09-15T00:15:37.761Z,1.48
2022-09-15T00:16:39.892Z,1.67
2022-09-15T00:17:43.255Z,1.70
2022-09-15T00:18:46.160Z,1.42
2022-09-15T00:19:49.240Z,1.98
2022-09-15T00:20:51.289Z,1.40
2022-09-15T00:21:54.377Z,1.30
2022-09-15T00:22:56.591Z,1.58
2022-09-15T00:24:00.805Z,2.05
2022-09-15T00:25:02.965Z,1.60
2022-09-15T00:26:09.084Z,1.75
2022-09-15T00:27:11.130Z,2.17
2022-09-15T00:28:15.635Z,2.28
2022-09-15T00:29:17.677Z,2.10
2022-09-15T00:30:22.195Z,2.00
2022-09-15T00:31:26.074Z,2.17
2022-09-15T00:32:30.447Z,2.03
2022-09-15T00:33:32.540Z,2.00
2022-09-15T00:34:35.888Z,2.13
2022-09-15T00:35:39.474Z,2.08
2022-09-15T00:36:42.567Z,2.13
2022-09-15T00:37:44.595Z,1.98
2022-09-15T00:38:48.367Z,2.22
2022-09-15T00:39:50.561Z,2.00
2022-09-15T00:40:55.502Z,1.85
2022-09-15T00:41:57.592Z,2.08
2022-09-15T00:43:00.630Z,1.90
2022-09-15T00:44:04.818Z,1.70
2022-09-15T00:45:16.863Z,2.13
2022-09-15T00:46:22.768Z,2.03
2022-09-15T00:47:28.615Z,2.05
2022-09-15T00:48:30.709Z,2.25
2022-09-15T00:49:37.608Z,2.30
2022-09-15T00:50:41.342Z,1.88
2022-09-15T00:51:49.557Z,1.90
2022-09-15T00:52:56.896Z,1.95
2022-09-15T00:54:02.973Z,1.90
2022-09-15T00:55:10.305Z,2.10
2022-09-15T00:56:17.358Z,2.03
2022-09-15T00:57:23.508Z,1.83
2022-09-15T00:58:31.756Z,1.63
2022-09-15T00:59:37.474Z,2.00
2022-09-15T01:00:45.766Z,2.00
2022-09-15T01:01:56.054Z,1.80
2022-09-15T01:02:59.159Z,1.92
2022-09-15T01:04:01.743Z,2.13
2022-09-15T01:05:09.227Z,1.80
2022-09-15T01:06:18.113Z,1.90
2022-09-15T01:07:28.118Z,2.13
2022-09-15T01:08:34.608Z,1.92
2022-09-15T01:09:42.944Z,1.92
2022-09-15T01:10:46.638Z,1.88
2022-09-15T01:11:50.088Z,2.00
2022-09-15T01:12:54.054Z,1.77
2022-09-15T01:13:57.379Z,2.22
2022-09-15T01:15:00.648Z,2.13
2022-09-15T01:16:12.584Z,1.98
2022-09-15T01:17:28.521Z,2.15
2022-09-15T01:18:41.315Z,1.88
2022-09-15T01:20:14.483Z,2.03
2022-09-15T01:21:33.218Z,2.00
2022-09-15T01:22:42.222Z,1.80
2022-09-15T01:24:12.729Z,2.00
2022-09-15T01:25:27.867Z,1.95
2022-09-15T01:26:53.769Z,1.80
2022-09-15T01:28:22.798Z,1.77
2022-09-15T01:29:48.648Z,1.60
2022-09-15T01:31:00.447Z,1.90
2022-09-15T01:32:27.736Z,2.20
2022-09-15T01:33:37.365Z,1.88
2022-09-15T01:34:45.092Z,2.40
2022-09-15T01:35:56.957Z,2.15
2022-09-15T01:37:04.970Z,2.00
2022-09-15T01:38:12.884Z,1.98
2022-09-15T01:39:22.725Z,1.98
2022-09-15T01:40:31.068Z,1.55
2022-09-15T01:41:39.013Z,2.00
2022-09-15T01:42:43.471Z,2.10
2022-09-15T01:43:51.597Z,1.90
2022-09-15T01:44:58.980Z,1.80
2022-09-15T01:46:04.450Z,1.92
2022-09-15T01:47:10.249Z,1.83
2022-09-15T01:48:13.405Z,2.15
2022-09-15T01:49:18.707Z,1.90
2022-09-15T01:50:24.236Z,2.22
2022-09-15T01:51:28.508Z,1.90
2022-09-15T01:52:32.724Z,1.75
2022-09-15T01:53:36.423Z,1.90
2022-09-15T01:54:44.285Z,1.80
2022-09-15T01:55:53.608Z,1.90
2022-09-15T01:56:56.134Z,2.22
2022-09-15T01:57:59.729Z,2.13
2022-09-15T01:59:01.832Z,2.03
2022-09-15T02:00:07.161Z,1.88
2022-09-15T02:01:14.592Z,2.35
2022-09-15T02:02:24.020Z,2.00
2022-09-15T02:03:33.258Z,2.05
2022-09-15T02:04:41.854Z,1.95
2022-09-15T02:05:48.870Z,1.90
2022-09-15T02:06:57.424Z,1.83
2022-09-15T02:08:05.434Z,1.90
2022-09-15T02:09:14.036Z,2.30
2022-09-15T02:10:22.191Z,2.00
2022-09-15T02:11:29.005Z,2.00
2022-09-15T02:12:36.317Z,1.75
2022-09-15T02:13:48.812Z,2.35
2022-09-15T02:14:57.565Z,2.20
2022-09-15T02:16:02.339Z,2.22
2022-09-15T02:17:05.505Z,2.20
2022-09-15T02:18:10.515Z,1.90
2022-09-15T02:19:17.457Z,2.10
2022-09-15T02:20:23.714Z,1.83
2022-09-15T02:21:31.666Z,1.98
2022-09-15T02:22:38.916Z,2.05
2022-09-15T02:23:44.195Z,1.90
2022-09-15T02:24:51.302Z,2.00
2022-09-15T02:25:58.175Z,2.30
2022-09-15T02:27:04.309Z,2.00
2022-09-15T02:28:08.557Z,2.25
2022-09-15T02:29:16.152Z,2.10
2022-09-15T02:30:19.947Z,2.05
2022-09-15T02:31:26.495Z,2.28
2022-09-15T02:32:31.613Z,1.90
2022-09-15T02:33:38.162Z,1.90
2022-09-15T02:34:45.395Z,1.85
2022-09-15T02:35:47.932Z,2.05
2022-09-15T02:36:52.966Z,1.95
2022-09-15T02:37:56.395Z,2.40
2022-09-15T02:39:04.623Z,1.80
2022-09-15T02:40:07.545Z,2.40
2022-09-15T02:41:10.950Z,2.00
2022-09-15T02:42:13.382Z,2.13
2022-09-15T02:43:19.365Z,2.10
2022-09-15T02:44:22.137Z,2.05
2022-09-15T02:45:26.910Z,2.50
2022-09-15T02:46:30.515Z,1.80
2022-09-15T02:47:33.590Z,2.30
2022-09-15T02:48:36.141Z,2.20
2022-09-15T02:49:39.225Z,2.60
2022-09-15T02:50:41.374Z,2.33
2022-09-15T02:51:44.432Z,2.13
2022-09-15T02:52:46.722Z,1.95
2022-09-15T02:53:50.033Z,2.20
2022-09-15T02:54:52.166Z,2.20
2022-09-15T02:55:55.226Z,2.63
2022-09-15T02:56:57.436Z,2.33
2022-09-15T02:58:00.815Z,2.60
2022-09-15T02:59:02.925Z,2.50
2022-09-15T03:00:17.339Z,2.28
2022-09-15T03:01:19.558Z,2.10
2022-09-15T03:02:24.930Z,2.67
2022-09-15T03:03:27.122Z,2.33
2022-09-15T03:04:30.257Z,2.53
2022-09-15T03:05:32.328Z,2.78
2022-09-15T03:06:35.985Z,2.30
2022-09-15T03:07:38.582Z,2.30
2022-09-15T03:08:41.727Z,2.53
2022-09-15T03:09:43.823Z,2.53
2022-09-15T03:10:46.835Z,2.22
2022-09-15T03:11:48.947Z,2.53
2022-09-15T03:12:54.253Z,2.20
2022-09-15T03:13:58.386Z,2.25
2022-09-15T03:15:01.470Z,2.50
2022-09-15T03:16:07.607Z,2.47
2022-09-15T03:17:10.817Z,2.30
2022-09-15T03:18:14.257Z,2.63
2022-09-15T03:19:17.397Z,2.22
2022-09-15T03:20:21.576Z,2.35
2022-09-15T03:21:24.704Z,2.65
2022-09-15T03:22:26.771Z,2.10
2022-09-15T03:23:29.896Z,2.67
2022-09-15T03:24:31.982Z,2.22
2022-09-15T03:25:35.030Z,2.25
2022-09-15T03:26:37.073Z,2.50
2022-09-15T03:27:40.805Z,2.22
2022-09-15T03:28:42.870Z,2.40
2022-09-15T03:29:46.699Z,2.17
2022-09-15T03:30:48.891Z,2.28
2022-09-15T03:31:52.159Z,2.30
2022-09-15T03:32:54.348Z,2.28
2022-09-15T03:33:58.761Z,1.90
2022-09-15T03:35:00.981Z,2.33
2022-09-15T03:36:04.561Z,2.20
2022-09-15T03:37:08.276Z,2.65
2022-09-15T03:38:10.573Z,2.20
2022-09-15T03:39:14.048Z,2.30
2022-09-15T03:40:16.442Z,2.30
2022-09-15T03:41:20.024Z,2.40
2022-09-15T03:42:22.118Z,2.08
2022-09-15T03:43:25.692Z,2.40
2022-09-15T03:44:27.778Z,2.13
2022-09-15T03:45:30.882Z,2.00
2022-09-15T03:46:33.232Z,2.33
2022-09-15T03:47:36.331Z,2.38
2022-09-15T03:48:40.521Z,2.40
2022-09-15T03:49:45.133Z,2.67
2022-09-15T03:50:47.269Z,2.17
2022-09-15T03:51:50.386Z,2.17
2022-09-15T03:52:56.725Z,2.05
2022-09-15T03:54:01.866Z,2.03
2022-09-15T03:55:04.342Z,2.28
2022-09-15T03:56:23.212Z,1.70
2022-09-15T03:57:25.269Z,1.90
2022-09-15T03:58:30.777Z,2.17
2022-09-15T03:59:33.053Z,2.40
2022-09-15T04:00:36.310Z,1.83
2022-09-15T04:01:38.651Z,2.10
2022-09-15T04:02:41.771Z,2.05
2022-09-15T04:03:50.151Z,2.13
2022-09-15T04:04:55.407Z,2.20
2022-09-15T04:05:57.580Z,2.75
2022-09-15T04:07:00.749Z,2.28
2022-09-15T04:08:03.237Z,1.90
2022-09-15T04:09:06.861Z,2.00
2022-09-15T04:10:09.945Z,1.73
2022-09-15T04:11:14.291Z,2.00
2022-09-15T04:12:16.747Z,2.00
2022-09-15T04:13:19.841Z,1.77
2022-09-15T04:14:22.030Z,1.90
2022-09-15T04:15:25.677Z,2.05
2022-09-15T04:16:28.439Z,2.15
2022-09-15T04:17:31.620Z,2.28
2022-09-15T04:18:34.519Z,1.83
2022-09-15T04:19:37.573Z,2.00
2022-09-15T04:20:41.453Z,2.30
2022-09-15T04:21:45.765Z,1.92
2022-09-15T04:22:47.826Z,2.13
2022-09-15T04:23:51.391Z,2.20
2022-09-15T04:24:53.527Z,2.03
2022-09-15T04:25:57.807Z,2.15
2022-09-15T04:26:59.970Z,2.05
2022-09-15T04:28:03.288Z,2.72
2022-09-15T04:29:10.995Z,2.22
2022-09-15T04:30:14.362Z,2.15
2022-09-15T04:31:17.581Z,2.33
2022-09-15T04:32:21.024Z,2.13
2022-09-15T04:33:23.121Z,2.00
2022-09-15T04:34:26.216Z,2.30
2022-09-15T04:35:28.922Z,1.83
2022-09-15T04:36:33.573Z,2.30
2022-09-15T04:37:35.642Z,1.77
2022-09-15T04:38:38.788Z,2.15
2022-09-15T04:39:40.844Z,1.92
2022-09-15T04:40:43.973Z,2.30
2022-09-15T04:41:46.275Z,1.70
2022-09-15T04:42:49.364Z,1.95
2022-09-15T04:43:51.510Z,2.40
2022-09-15T04:44:54.610Z,1.85
2022-09-15T04:45:56.743Z,1.85
2022-09-15T04:47:00.408Z,2.00
2022-09-15T04:48:02.921Z,2.20
2022-09-15T04:49:05.956Z,2.00
2022-09-15T04:50:08.540Z,1.85
2022-09-15T04:51:13.934Z,1.83
2022-09-15T04:52:17.416Z,1.80
2022-09-15T04:53:20.829Z,2.03
2022-09-15T04:54:23.396Z,2.08
2022-09-15T04:55:27.035Z,1.88
2022-09-15T04:56:29.231Z,1.85
2022-09-15T04:57:32.553Z,1.90
2022-09-15T04:58:37.325Z,1.60
2022-09-15T04:59:40.412Z,1.88
2022-09-15T05:00:43.653Z,1.58
2022-09-15T05:01:47.643Z,1.80
2022-09-15T05:02:50.234Z,1.65
2022-09-15T05:03:53.613Z,1.85
2022-09-15T05:04:55.677Z,1.95
2022-09-15T05:05:58.705Z,2.05
2022-09-15T05:07:00.842Z,2.30
2022-09-15T05:08:05.571Z,1.95
2022-09-15T05:09:10.545Z,1.80
2022-09-15T05:10:14.178Z,1.70
2022-09-15T05:11:16.627Z,1.90
2022-09-15T05:12:19.701Z,1.70
2022-09-15T05:13:21.758Z,1.90
2022-09-15T05:14:24.877Z,1.95
2022-09-15T05:15:27.057Z,2.60
2022-09-15T05:16:31.287Z,2.35
2022-09-15T05:17:33.967Z,1.85
2022-09-15T05:18:37.033Z,1.58
2022-09-15T05:19:39.124Z,1.50
2022-09-15T05:20:42.208Z,1.50
2022-09-15T05:21:44.297Z,1.83
2022-09-15T05:22:47.311Z,1.60
2022-09-15T05:23:52.037Z,1.40
2022-09-15T05:24:55.481Z,1.75
2022-09-15T05:25:57.544Z,1.77
2022-09-15T05:27:00.593Z,1.70
2022-09-15T05:28:03.075Z,1.80
2022-09-15T05:29:06.150Z,1.77
2022-09-15T05:30:35.539Z,1.58
2022-09-15T05:31:35.154Z,1.80
2022-09-15T05:32:37.347Z,1.52
2022-09-15T05:33:40.732Z,1.70
2022-09-15T05:34:44.081Z,1.70
2022-09-15T05:35:53.382Z,1.80
2022-09-15T05:36:57.159Z,1.38
2022-09-15T05:38:00.199Z,1.50
2022-09-15T05:39:04.735Z,1.70
2022-09-15T05:40:08.719Z,1.45
2022-09-15T05:41:13.918Z,1.42
2022-09-15T05:42:15.958Z,2.22
2022-09-15T05:43:19.479Z,1.23
2022-09-15T05:44:22.628Z,2.08
2022-09-15T05:45:24.656Z,1.67
2022-09-15T05:46:29.325Z,1.67
2022-09-15T05:47:36.357Z,1.85
2022-09-15T05:48:40.157Z,1.88
2022-09-15T05:49:42.223Z,1.80
2022-09-15T05:50:50.560Z,1.60
2022-09-15T05:51:53.554Z,1.50
2022-09-15T05:52:55.721Z,1.50
2022-09-15T05:53:58.794Z,1.70
2022-09-15T05:55:02.191Z,1.40
2022-09-15T05:56:07.191Z,1.80
2022-09-15T05:57:09.311Z,1.73
2022-09-15T05:58:12.892Z,1.65
2022-09-15T05:59:15.931Z,1.65
2022-09-15T06:00:19.010Z,1.40
2022-09-15T06:01:24.151Z,1.50
2022-09-15T06:02:26.368Z,1.48
2022-09-15T06:03:31.049Z,1.73
2022-09-15T06:04:34.309Z,1.35
2022-09-15T06:05:36.333Z,1.25
2022-09-15T06:06:39.374Z,1.50
2022-09-15T06:07:41.516Z,1.60
2022-09-15T06:08:50.943Z,1.85
2022-09-15T06:09:55.195Z,1.42
2022-09-15T06:11:04.449Z,1.58
2022-09-15T06:12:06.842Z,1.38
2022-09-15T06:13:10.056Z,1.92
2022-09-15T06:14:14.021Z,1.77
2022-09-15T06:15:16.118Z,1.65
2022-09-15T06:16:21.079Z,1.70
2022-09-15T06:17:24.283Z,1.40
2022-09-15T06:18:26.327Z,1.50
2022-09-15T06:19:29.365Z,1.60
2022-09-15T06:20:31.438Z,1.95
2022-09-15T06:21:34.696Z,1.50
2022-09-15T06:22:36.735Z,1.42
2022-09-15T06:23:40.608Z,1.42
2022-09-15T06:24:42.648Z,2.13
2022-09-15T06:25:45.660Z,1.50
2022-09-15T06:26:50.277Z,1.40
2022-09-15T06:27:52.393Z,1.95
2022-09-15T06:28:57.473Z,1.52
2022-09-15T06:29:59.644Z,1.67
2022-09-15T06:31:02.789Z,1.50
2022-09-15T06:32:06.006Z,1.70
2022-09-15T06:33:09.109Z,1.48
2022-09-15T06:34:11.766Z,1.42
2022-09-15T06:35:15.241Z,1.42
2022-09-15T06:36:18.417Z,1.33
2022-09-15T06:37:21.567Z,1.40
2022-09-15T06:38:23.640Z,1.67
2022-09-15T06:39:26.771Z,1.83
2022-09-15T06:40:28.895Z,1.42
2022-09-15T06:41:52.480Z,1.60
2022-09-15T06:42:57.007Z,1.58
2022-09-15T06:44:00.023Z,1.30
2022-09-15T06:45:02.188Z,1.50
2022-09-15T06:46:07.872Z,1.38
2022-09-15T06:47:11.007Z,1.63
2022-09-15T06:48:24.588Z,1.70
2022-09-15T06:49:28.726Z,1.75
2022-09-15T06:50:31.122Z,1.58
2022-09-15T06:51:36.004Z,1.42
2022-09-15T06:52:38.020Z,1.90
2022-09-15T06:53:41.522Z,2.08
2022-09-15T06:54:43.565Z,1.70
2022-09-15T06:55:46.663Z,1.63
2022-09-15T06:56:49.702Z,1.90
2022-09-15T06:57:51.937Z,1.67
2022-09-15T06:58:56.876Z,1.83
2022-09-15T06:59:58.967Z,1.50
2022-09-15T07:01:03.589Z,1.23
2022-09-15T07:02:05.667Z,1.60
2022-09-15T07:03:08.915Z,1.40
2022-09-15T07:04:11.296Z,1.70
2022-09-15T07:05:14.459Z,1.77
2022-09-15T07:06:16.563Z,1.55
2022-09-15T07:07:19.698Z,1.73
2022-09-15T07:08:22.724Z,1.70
2022-09-15T07:09:25.743Z,1.67
2022-09-15T07:10:27.872Z,1.38
2022-09-15T07:11:31.679Z,1.52
2022-09-15T07:12:33.725Z,1.48
2022-09-15T07:13:37.443Z,1.70
2022-09-15T07:14:42.791Z,1.80
2022-09-15T07:15:51.415Z,1.40
2022-09-15T07:16:54.554Z,1.52
2022-09-15T07:17:56.589Z,1.40
2022-09-15T07:19:02.014Z,2.00
2022-09-15T07:20:04.958Z,1.90
2022-09-15T07:21:09.797Z,1.58
2022-09-15T07:22:12.088Z,1.58
2022-09-15T07:23:15.166Z,1.50
2022-09-15T07:24:18.290Z,2.03
2022-09-15T07:25:20.377Z,1.30
2022-09-15T07:26:25.699Z,1.50
2022-09-15T07:27:31.582Z,1.70
2022-09-15T07:28:35.200Z,1.50
2022-09-15T07:29:39.291Z,1.33
2022-09-15T07:30:43.857Z,1.90
2022-09-15T07:31:46.935Z,1.67
2022-09-15T07:32:48.962Z,1.85
2022-09-15T07:33:52.387Z,1.60
2022-09-15T07:34:58.120Z,1.60
2022-09-15T07:36:01.970Z,1.63
2022-09-15T07:37:06.314Z,1.45
2022-09-15T07:38:08.432Z,1.63
2022-09-15T07:39:11.552Z,1.77
2022-09-15T07:40:14.049Z,1.58
2022-09-15T07:41:19.210Z,1.30
2022-09-15T07:42:21.188Z,1.48
2022-09-15T07:43:24.382Z,1.77
2022-09-15T07:44:27.560Z,1.40
2022-09-15T07:45:29.651Z,1.67
2022-09-15T07:46:34.670Z,1.80
2022-09-15T07:47:36.778Z,1.38
2022-09-15T07:48:41.974Z,1.58
2022-09-15T07:49:44.156Z,1.73
2022-09-15T07:50:47.940Z,1.90
2022-09-15T07:51:50.992Z,1.50
2022-09-15T07:52:55.467Z,1.45
2022-09-15T07:53:58.715Z,1.92
2022-09-15T07:55:00.730Z,1.58
2022-09-15T07:56:04.315Z,1.70
2022-09-15T07:57:06.581Z,1.52
2022-09-15T07:58:09.793Z,1.55
2022-09-15T07:59:11.891Z,1.63
2022-09-15T08:00:15.881Z,1.83
2022-09-15T08:01:20.226Z,1.92
2022-09-15T08:02:24.729Z,1.90
2022-09-15T08:03:29.363Z,2.50
2022-09-15T08:04:32.419Z,1.33
2022-09-15T08:05:38.698Z,2.28
2022-09-15T08:06:43.407Z,1.58
2022-09-15T08:07:45.522Z,1.55
2022-09-15T08:08:49.117Z,1.42
2022-09-15T08:09:52.307Z,1.17
2022-09-15T08:10:54.784Z,1.20
2022-09-15T08:11:57.952Z,1.52
2022-09-15T08:13:00.234Z,1.50
2022-09-15T08:14:03.790Z,1.50
2022-09-15T08:15:06.378Z,1.30
2022-09-15T08:16:11.021Z,1.73
2022-09-15T08:17:13.181Z,1.25
2022-09-15T08:18:17.748Z,1.25
2022-09-15T08:19:20.788Z,1.60
2022-09-15T08:20:23.791Z,1.60
2022-09-15T08:21:27.663Z,1.30
2022-09-15T08:22:29.873Z,1.58
2022-09-15T08:23:33.426Z,1.60
2022-09-15T08:24:35.544Z,1.83
2022-09-15T08:25:39.190Z,1.50
2022-09-15T08:26:42.213Z,1.65
2022-09-15T08:27:45.188Z,1.33
2022-09-15T08:28:47.404Z,1.13
2022-09-15T08:29:50.460Z,1.65
2022-09-15T08:31:00.966Z,1.25
2022-09-15T08:32:04.112Z,1.55
2022-09-15T08:33:07.142Z,1.60
2022-09-15T08:34:13.088Z,1.35
2022-09-15T08:35:16.832Z,1.30
2022-09-15T08:36:20.859Z,1.55
2022-09-15T08:37:22.986Z,1.40
2022-09-15T08:38:26.037Z,1.50
2022-09-15T08:39:29.099Z,1.50
2022-09-15T08:40:35.632Z,1.40
2022-09-15T08:41:40.965Z,1.25
2022-09-15T08:42:45.087Z,1.50
2022-09-15T08:43:54.264Z,1.50
2022-09-15T08:45:02.665Z,1.20
2022-09-15T08:46:10.876Z,1.50
2022-09-15T08:47:17.470Z,1.38
2022-09-15T08:48:28.254Z,1.48
2022-09-15T08:50:58.038Z,1.33
2022-09-15T08:52:06.082Z,1.30
2022-09-15T08:53:14.008Z,1.50
2022-09-15T08:54:22.094Z,1.30
2022-09-15T08:55:38.614Z,1.48
2022-09-15T08:56:42.807Z,1.20
2022-09-15T08:57:45.113Z,1.40
2022-09-15T08:58:48.303Z,1.20
2022-09-15T08:59:50.455Z,1.55
2022-09-15T09:01:03.431Z,1.50
2022-09-15T09:02:29.532Z,1.13
2022-09-15T09:03:59.011Z,1.40
2022-09-15T09:05:34.372Z,1.17
2022-09-15T09:06:44.910Z,1.90
2022-09-15T09:08:07.251Z,1.10
2022-09-15T09:09:17.295Z,1.08
2022-09-15T09:10:26.547Z,1.23
2022-09-15T09:11:43.280Z,1.30
2022-09-15T09:13:00.925Z,1.58
2022-09-15T09:14:14.355Z,1.88
2022-09-15T09:15:27.037Z,1.48
2022-09-15T09:16:43.601Z,1.58
2022-09-15T09:18:11.404Z,1.50
2022-09-15T09:19:32.535Z,1.52
2022-09-15T09:20:47.405Z,1.40
2022-09-15T09:21:57.071Z,1.17
2022-09-15T09:23:01.867Z,1.13
2022-09-15T09:24:07.575Z,1.30
2022-09-15T09:25:26.567Z,1.48
2022-09-15T09:26:33.742Z,1.30
2022-09-15T09:27:35.818Z,1.25
2022-09-15T09:28:43.364Z,1.35
2022-09-15T09:29:49.600Z,1.30
2022-09-15T09:30:53.627Z,1.30
2022-09-15T09:31:57.692Z,1.40
2022-09-15T09:33:16.124Z,1.20
2022-09-15T09:34:28.694Z,1.17
2022-09-15T09:35:37.646Z,1.13
2022-09-15T09:36:42.664Z,1.30
2022-09-15T09:37:46.105Z,1.27
2022-09-15T09:38:50.157Z,1.30
2022-09-15T09:39:52.237Z,1.25
2022-09-15T09:40:59.863Z,1.20
2022-09-15T09:42:06.879Z,1.40
2022-09-15T09:43:09.357Z,1.60
2022-09-15T09:44:15.259Z,1.35
2022-09-15T09:45:19.640Z,1.38
2022-09-15T09:46:22.847Z,1.75
2022-09-15T09:47:29.609Z,1.63
2022-09-15T09:48:32.251Z,1.40
2022-09-15T09:49:39.350Z,1.30
2022-09-15T09:50:43.213Z,1.40
2022-09-15T09:51:54.416Z,1.45
2022-09-15T09:52:56.425Z,1.52
2022-09-15T09:54:06.294Z,1.83
2022-09-15T09:55:23.198Z,1.40
2022-09-15T09:56:26.855Z,1.48
2022-09-15T09:57:36.563Z,1.80
2022-09-15T09:58:40.697Z,1.50
2022-09-15T09:59:46.268Z,2.05
2022-09-15T10:00:48.371Z,1.77
2022-09-15T10:02:07.588Z,1.33
2022-09-15T10:03:14.231Z,1.85
2022-09-15T10:04:19.403Z,1.60
2022-09-15T10:05:22.514Z,1.48
2022-09-15T10:06:30.243Z,1.92
2022-09-15T10:07:35.477Z,1.42
2022-09-15T10:08:51.255Z,1.50
2022-09-15T10:09:59.147Z,1.30
2022-09-15T10:11:04.507Z,1.45
2022-09-15T10:12:08.651Z,1.10
2022-09-15T10:13:11.437Z,1.17
2022-09-15T10:14:23.188Z,1.02
2022-09-15T10:15:28.182Z,1.20
2022-09-15T10:16:31.318Z,1.10
2022-09-15T10:17:43.639Z,1.25
2022-09-15T10:18:50.957Z,1.33
2022-09-15T10:19:58.647Z,1.05
2022-09-15T10:21:02.424Z,1.15
2022-09-15T10:22:06.270Z,1.40
2022-09-15T10:23:25.010Z,1.25
2022-09-15T10:24:35.308Z,0.82
2022-09-15T10:25:58.216Z,1.10
2022-09-15T10:27:09.933Z,1.15
2022-09-15T10:28:14.154Z,0.90
2022-09-15T10:29:18.890Z,1.15
2022-09-15T10:30:21.811Z,0.85
2022-09-15T10:31:31.484Z,1.15
2022-09-15T10:32:34.727Z,1.05
2022-09-15T10:33:37.975Z,1.10
2022-09-15T10:34:40.971Z,1.80
2022-09-15T10:35:43.103Z,1.00
2022-09-15T10:36:46.781Z,0.93
2022-09-15T10:38:10.072Z,0.93
2022-09-15T10:39:25.381Z,1.30
2022-09-15T10:40:34.717Z,1.00
2022-09-15T10:41:45.850Z,0.95
2022-09-15T10:42:52.861Z,0.85
2022-09-15T10:44:17.610Z,1.10
2022-09-15T10:45:28.856Z,0.90
2022-09-15T10:46:40.904Z,0.95
2022-09-15T10:47:56.619Z,1.30
2022-09-15T10:49:14.663Z,0.90
2022-09-15T10:50:25.181Z,0.80
2022-09-15T10:51:40.121Z,0.90
2022-09-15T10:52:59.275Z,0.85
2022-09-15T10:54:31.692Z,0.85
2022-09-15T10:55:52.602Z,1.33
2022-09-15T10:57:01.338Z,1.02
2022-09-15T10:58:19.272Z,1.10
2022-09-15T10:59:34.674Z,0.93
2022-09-15T11:00:45.561Z,1.00
2022-09-15T11:02:13.277Z,1.20
2022-09-15T11:03:38.748Z,1.10
2022-09-15T11:04:53.625Z,0.90
2022-09-15T11:06:06.250Z,1.10
2022-09-15T11:07:16.721Z,1.42
2022-09-15T11:08:47.176Z,1.17
2022-09-15T11:09:58.754Z,1.52
2022-09-15T11:11:10.668Z,1.10
2022-09-15T11:12:29.353Z,0.90
2022-09-15T11:13:42.253Z,1.10
2022-09-15T11:15:05.788Z,1.05
2022-09-15T11:16:33.242Z,0.95
2022-09-15T11:17:51.504Z,1.00
2022-09-15T11:19:07.633Z,0.93
2022-09-15T11:20:39.673Z,0.90
2022-09-15T11:21:46.405Z,1.30
2022-09-15T11:22:53.800Z,0.98
2022-09-15T11:24:12.217Z,1.10
2022-09-15T11:25:18.772Z,1.77
2022-09-15T11:26:28.363Z,0.90
2022-09-15T11:27:35.534Z,1.10
2022-09-15T11:28:42.874Z,1.10
2022-09-15T11:30:05.864Z,1.08
2022-09-15T11:31:15.446Z,0.90
2022-09-15T11:32:26.557Z,1.00
2022-09-15T11:33:35.859Z,1.00
2022-09-15T11:34:45.830Z,0.95
2022-09-15T11:35:54.549Z,1.05
2022-09-15T11:37:03.915Z,1.13
2022-09-15T11:38:24.263Z,1.00
2022-09-15T11:39:31.625Z,1.33
2022-09-15T11:40:39.566Z,1.00
2022-09-15T11:41:49.606Z,1.40
2022-09-15T11:42:57.371Z,1.17
2022-09-15T11:44:17.683Z,1.23
2022-09-15T11:45:24.994Z,1.20
2022-09-15T11:46:37.120Z,1.02
2022-09-15T11:47:44.207Z,1.30
2022-09-15T11:48:55.083Z,1.40
2022-09-15T11:50:00.803Z,1.15
2022-09-15T11:51:06.527Z,1.15
2022-09-15T11:52:29.559Z,1.95
2022-09-15T11:53:39.272Z,1.35
2022-09-15T11:54:46.735Z,1.10
2022-09-15T11:55:56.952Z,1.23
2022-09-15T11:57:00.125Z,1.17
2022-09-15T11:58:22.330Z,1.25
2022-09-15T11:59:32.946Z,1.20
2022-09-15T12:00:41.318Z,1.10
2022-09-15T12:01:49.688Z,1.30
2022-09-15T12:03:00.998Z,1.00
2022-09-15T12:04:08.615Z,1.55
2022-09-15T12:05:17.690Z,1.50
2022-09-15T12:06:24.877Z,1.42
2022-09-15T12:07:32.814Z,1.60
2022-09-15T12:08:40.418Z,1.20
2022-09-15T12:09:43.606Z,1.30
2022-09-15T12:10:49.860Z,1.02
2022-09-15T12:11:57.940Z,1.65
2022-09-15T12:13:01.200Z,1.10
2022-09-15T12:14:05.643Z,1.25
2022-09-15T12:15:15.944Z,1.15
2022-09-15T12:16:20.566Z,1.55
2022-09-15T12:17:30.492Z,1.25
2022-09-15T12:18:42.838Z,1.40
2022-09-15T12:19:55.816Z,1.40
2022-09-15T12:21:04.750Z,1.00
2022-09-15T12:22:16.207Z,1.52
2022-09-15T12:23:24.863Z,1.20
2022-09-15T12:24:37.652Z,1.02
2022-09-15T12:25:50.801Z,1.13
2022-09-15T12:26:55.359Z,1.00
2022-09-15T12:28:35.388Z,1.23
2022-09-15T12:29:42.188Z,1.17
2022-09-15T12:30:44.777Z,1.25
2022-09-15T12:31:48.054Z,1.20
2022-09-15T12:32:50.045Z,1.10
2022-09-15T12:33:58.269Z,1.20
2022-09-15T12:35:06.508Z,1.23
2022-09-15T12:37:37.833Z,1.45
2022-09-15T12:38:39.991Z,1.10
2022-09-15T12:39:44.567Z,1.15
2022-09-15T12:40:58.997Z,0.90
2022-09-15T12:42:18.467Z,1.02
2022-09-15T12:43:23.098Z,1.02
2022-09-15T12:44:33.812Z,1.08
2022-09-15T12:46:39.529Z,1.02
2022-09-15T12:47:52.090Z,1.10
2022-09-15T12:48:59.520Z,1.00
2022-09-15T12:50:08.656Z,1.05
2022-09-15T12:51:11.739Z,0.90
2022-09-15T12:52:15.264Z,0.85
2022-09-15T12:53:21.666Z,0.75
2022-09-15T12:54:29.510Z,1.00
2022-09-15T12:55:37.428Z,1.15
2022-09-15T12:56:39.488Z,0.90
2022-09-15T12:57:50.293Z,0.90
2022-09-15T12:58:53.654Z,1.00
2022-09-15T13:00:29.387Z,1.15
2022-09-15T13:01:48.639Z,0.90
2022-09-15T13:02:51.672Z,1.05
2022-09-15T13:04:25.704Z,0.88
2022-09-15T13:06:18.275Z,1.00
2022-09-15T13:07:52.747Z,1.33
2022-09-15T13:09:17.001Z,1.13
2022-09-15T13:10:32.106Z,1.15
2022-09-15T13:11:40.555Z,1.30
2022-09-15T13:12:53.289Z,1.10
2022-09-15T13:14:10.693Z,1.20
2022-09-15T13:15:15.044Z,1.42
2022-09-15T13:16:23.611Z,1.33
2022-09-15T13:17:27.174Z,0.90
2022-09-15T13:18:33.275Z,0.85
2022-09-15T13:19:42.230Z,1.10
2022-09-15T13:20:52.287Z,1.10
2022-09-15T13:22:02.511Z,1.10
2022-09-15T13:23:08.713Z,1.10
2022-09-15T13:24:19.922Z,0.93
2022-09-15T13:25:28.252Z,1.00
2022-09-15T13:26:32.175Z,1.30
2022-09-15T13:27:38.138Z,1.30
2022-09-15T13:28:43.004Z,0.88
2022-09-15T13:29:51.719Z,1.00
2022-09-15T13:31:04.198Z,0.90
2022-09-15T13:32:17.054Z,1.30
2022-09-15T13:35:29.399Z,1.20
2022-09-15T13:38:31.420Z,1.08
2022-09-15T13:39:54.097Z,1.40
2022-09-15T13:41:48.755Z,1.33
2022-09-15T13:43:05.109Z,1.10
2022-09-15T13:44:43.049Z,1.23
2022-09-15T13:45:55.976Z,1.00
2022-09-15T13:47:10.794Z,1.23
2022-09-15T13:48:41.691Z,1.60
2022-09-15T13:49:51.562Z,1.20
2022-09-15T13:50:59.662Z,1.27
2022-09-15T13:52:08.231Z,1.35
2022-09-15T13:53:42.674Z,1.80
2022-09-15T13:55:10.344Z,1.20
2022-09-15T13:56:20.332Z,1.45
2022-09-15T13:58:54.493Z,1.20
2022-09-15T13:59:08.654Z,1.35
2022-09-15T14:00:20.787Z,1.05
2022-09-15T14:01:26.888Z,1.35
2022-09-15T14:02:29.554Z,1.38
2022-09-15T14:03:40.316Z,1.10
2022-09-15T14:05:46.650Z,1.25
2022-09-15T14:06:51.398Z,1.10
2022-09-15T14:08:01.150Z,1.33
2022-09-15T14:09:11.140Z,1.00
2022-09-15T14:10:22.328Z,1.27
2022-09-15T14:11:29.441Z,0.90
2022-09-15T14:12:31.528Z,0.98
2022-09-15T14:13:37.415Z,1.05
2022-09-15T14:14:44.267Z,1.08
2022-09-15T14:15:59.336Z,0.90
2022-09-15T14:17:02.475Z,1.13
2022-09-15T14:18:05.916Z,1.23
2022-09-15T14:19:33.426Z,1.33
2022-09-15T14:20:36.494Z,1.38
2022-09-15T14:21:49.092Z,1.20
2022-09-15T14:22:52.620Z,1.50
2022-09-15T14:23:56.259Z,1.20
2022-09-15T14:25:00.708Z,1.25
2022-09-15T14:26:02.979Z,1.00
2022-09-15T14:27:10.862Z,1.15
2022-09-15T14:28:19.211Z,1.20
2022-09-15T14:29:26.051Z,1.38
2022-09-15T14:30:32.008Z,1.50
2022-09-15T14:31:38.752Z,1.10
2022-09-15T14:32:49.247Z,1.70
2022-09-15T14:33:52.495Z,1.20
2022-09-15T14:34:58.383Z,1.20
2022-09-15T14:36:02.028Z,1.08
2022-09-15T14:37:07.806Z,1.45
2022-09-15T14:38:21.673Z,1.70
2022-09-15T14:39:24.817Z,1.30
2022-09-15T14:40:30.931Z,1.00
2022-09-15T14:41:33.051Z,1.23
2022-09-15T14:42:37.440Z,1.15
2022-09-15T14:43:42.086Z,1.20
2022-09-15T14:46:11.991Z,1.05
2022-09-15T14:47:20.159Z,0.90
2022-09-15T14:48:28.285Z,1.10
2022-09-15T14:49:30.426Z,1.00
2022-09-15T14:50:33.863Z,1.10
2022-09-15T14:51:36.136Z,0.90
2022-09-15T14:52:41.530Z,1.00
2022-09-15T14:53:45.397Z,1.00
2022-09-15T14:54:49.059Z,1.00
2022-09-15T14:55:55.658Z,0.98
2022-09-15T14:57:02.616Z,0.98
2022-09-15T14:58:12.734Z,0.90
2022-09-15T14:59:19.416Z,1.17
2022-09-15T15:00:28.660Z,1.05
2022-09-15T15:01:36.446Z,0.80